Time;durP1;ratioP1;P1;durP2;ratioP2;P2;SDS_P1;SDS_P2;PMS_P1;PMS_P2;Temp;Humidity;BMP_temperature;BMP_pressure;BME280_temperature;BME280_humidity;BME280_pressure;Samples;Min_cycle;Max_cycle;Signal;HPM_P1;HPM_P2
2023/03/06 00:01:26;;;;;;;28.40;25.63;;;;;;;6.34;43.37;100678.66;5057561;28;20389;-77
2023/03/06 00:03:53;;;;;;;29.65;26.63;;;;;;;6.44;43.17;100680.28;5051951;28;20861;-77
2023/03/06 00:06:20;;;;;;;32.22;28.98;;;;;;;6.38;43.14;100680.06;5052425;28;20372;-77
2023/03/06 00:08:45;;;;;;;26.20;23.83;;;;;;;6.34;43.34;100684.78;5052163;28;20498;-77
2023/03/06 00:11:13;;;;;;;25.40;22.90;;;;;;;6.31;43.26;100683.25;5052243;28;20384;-78
2023/03/06 00:13:39;;;;;;;29.20;26.43;;;;;;;6.37;43.34;100687.09;5065564;28;20406;-77
2023/03/06 00:16:05;;;;;;;25.90;23.50;;;;;;;6.32;43.03;100682.28;5071737;28;20394;-77
2023/03/06 00:18:32;;;;;;;30.75;26.42;;;;;;;6.18;43.11;100688.00;5071468;28;20411;-77
2023/03/06 00:20:57;;;;;;;30.15;26.90;;;;;;;6.19;43.60;100684.38;5087625;28;20868;-77
2023/03/06 00:23:23;;;;;;;34.17;29.97;;;;;;;6.23;43.04;100683.16;5071598;28;20385;-77
2023/03/06 00:25:48;;;;;;;30.17;26.53;;;;;;;6.14;43.23;100684.00;5071433;28;20460;-77
2023/03/06 00:28:14;;;;;;;33.73;28.97;;;;;;;6.26;42.97;100687.28;5071341;28;20418;-77
2023/03/06 00:30:40;;;;;;;32.60;29.05;;;;;;;6.36;42.93;100688.09;5071173;28;20451;-77
2023/03/06 00:33:06;;;;;;;30.23;26.95;;;;;;;6.25;42.47;100690.91;5070847;28;20432;-77
2023/03/06 00:35:31;;;;;;;30.07;27.00;;;;;;;6.19;42.68;100680.91;5070166;28;20415;-77
2023/03/06 00:37:58;;;;;;;30.77;24.55;;;;;;;6.18;42.74;100674.84;5086546;28;20363;-77
2023/03/06 00:40:24;;;;;;;36.05;32.40;;;;;;;6.09;42.82;100675.69;5086873;28;20371;-77
2023/03/06 00:42:50;;;;;;;25.20;22.67;;;;;;;6.01;42.77;100678.19;5071902;28;21107;-77
2023/03/06 00:45:16;;;;;;;32.40;28.90;;;;;;;5.88;42.98;100686.34;5072807;28;20387;-77
2023/03/06 00:47:42;;;;;;;38.43;33.80;;;;;;;5.90;43.33;100676.50;5070579;28;20417;-77
2023/03/06 00:50:09;;;;;;;44.92;38.88;;;;;;;5.88;42.94;100684.53;5057247;28;20384;-77
2023/03/06 00:52:35;;;;;;;39.70;34.95;;;;;;;5.84;42.77;100672.66;5051182;28;20392;-77
2023/03/06 00:55:00;;;;;;;38.13;34.10;;;;;;;5.86;43.04;100678.59;5053842;28;20381;-77
2023/03/06 00:57:26;;;;;;;35.75;32.08;;;;;;;5.81;42.70;100677.34;5051353;28;20849;-77
2023/03/06 00:59:51;;;;;;;39.67;35.47;;;;;;;5.81;43.06;100685.25;5051325;28;20782;-77
2023/03/06 01:02:16;;;;;;;25.20;22.63;;;;;;;5.67;43.60;100681.22;5050904;28;20849;-77
2023/03/06 01:04:43;;;;;;;30.05;27.05;;;;;;;5.70;43.50;100691.47;5064513;28;20392;-77
2023/03/06 01:07:09;;;;;;;36.17;32.37;;;;;;;5.74;43.44;100684.97;5057591;28;20439;-77
2023/03/06 01:09:34;;;;;;;42.10;37.22;;;;;;;5.78;43.29;100675.00;5063543;28;20602;-77
2023/03/06 01:12:00;;;;;;;50.33;40.00;;;;;;;5.89;43.35;100682.75;5064503;28;20407;-75
2023/03/06 01:14:26;;;;;;;71.27;47.43;;;;;;;5.67;43.31;100673.34;5065595;28;20407;-76
2023/03/06 01:16:51;;;;;;;81.00;50.92;;;;;;;5.69;43.34;100682.78;5059082;28;20428;-76
2023/03/06 01:19:17;;;;;;;86.05;51.78;;;;;;;5.78;43.41;100688.16;5066759;28;20393;-76
2023/03/06 01:21:42;;;;;;;90.85;52.17;;;;;;;5.72;43.72;100671.94;5060993;28;20395;-76
2023/03/06 01:24:08;;;;;;;91.90;52.90;;;;;;;5.86;43.20;100690.91;5055950;28;20809;-76
2023/03/06 01:26:33;;;;;;;90.00;52.57;;;;;;;5.71;43.08;100675.56;5068220;28;20898;-77
2023/03/06 01:28:59;;;;;;;93.72;53.63;;;;;;;5.70;43.42;100670.44;5068377;28;20383;-76
2023/03/06 01:31:25;;;;;;;112.97;57.35;;;;;;;5.70;43.40;100678.34;5061301;28;20398;-76
2023/03/06 01:33:51;;;;;;;138.23;62.17;;;;;;;5.71;43.48;100680.00;5053962;28;20463;-76
2023/03/06 01:36:16;;;;;;;173.77;69.20;;;;;;;5.78;43.20;100681.09;5056901;28;20390;-77
2023/03/06 01:38:42;;;;;;;171.45;67.97;;;;;;;5.81;43.32;100685.25;5054680;28;20395;-77
2023/03/06 01:41:09;;;;;;;188.95;72.22;;;;;;;5.73;43.06;100688.59;5066387;28;20423;-77
2023/03/06 01:43:41;;;;;;;208.68;80.63;;;;;;;5.82;43.40;100682.47;5053789;28;20381;-76
2023/03/06 01:46:12;;;;;;;219.30;79.85;;;;;;;5.82;43.58;100686.91;5064253;28;20410;-76
2023/03/06 01:48:38;;;;;;;223.40;81.85;;;;;;;5.75;43.41;100687.47;5068504;28;20391;-77
2023/03/06 01:51:04;;;;;;;218.83;81.13;;;;;;;5.76;43.05;100675.13;5055139;28;20965;-76
2023/03/06 01:53:30;;;;;;;222.47;79.67;;;;;;;5.74;43.30;100674.44;5061021;28;20769;-76
2023/03/06 01:55:56;;;;;;;225.70;81.15;;;;;;;5.81;43.10;100678.19;5071479;28;20394;-76
2023/03/06 01:58:21;;;;;;;236.65;81.63;;;;;;;5.75;43.19;100674.31;5056644;28;20908;-76
2023/03/06 02:00:47;;;;;;;243.60;82.18;;;;;;;5.60;43.36;100683.59;5066632;28;20944;-76
2023/03/06 02:03:21;;;;;;;249.43;82.83;;;;;;;5.71;43.33;100686.09;5068599;28;20388;-77
2023/03/06 02:05:46;;;;;;;239.32;82.38;;;;;;;5.68;43.23;100677.63;5064426;28;20407;-77
2023/03/06 02:08:16;;;;;;;236.63;80.13;;;;;;;5.62;43.46;100693.97;5060449;28;20394;-77
2023/03/06 02:10:48;;;;;;;258.40;85.53;;;;;;;5.67;43.19;100674.19;5069799;28;20399;-76
2023/03/06 02:13:14;;;;;;;251.95;85.22;;;;;;;5.84;42.76;100687.59;5062201;28;20432;-76
2023/03/06 02:15:39;;;;;;;253.65;84.68;;;;;;;5.80;43.02;100678.31;5072585;28;20497;-76
2023/03/06 02:18:05;;;;;;;268.83;86.57;;;;;;;5.88;43.06;100695.06;5059564;28;20866;-77
2023/03/06 02:20:44;;;;;;;271.90;87.83;;;;;;;5.99;42.91;100694.13;5068073;28;20900;-77
2023/03/06 02:23:28;;;;;;;276.40;88.30;;;;;;;6.12;42.70;100699.06;5059944;28;20469;-76
2023/03/06 02:25:55;;;;;;;288.70;91.05;;;;;;;6.20;42.53;100706.28;5062970;28;20459;-76
2023/03/06 02:28:22;;;;;;;293.73;92.47;;;;;;;6.40;42.66;100710.53;5068995;28;20797;-76
2023/03/06 02:30:50;;;;;;;294.08;92.57;;;;;;;6.42;42.66;100700.66;5062048;28;20390;-76
2023/03/06 02:33:18;;;;;;;304.03;96.40;;;;;;;6.31;42.83;100709.56;5064930;28;20852;-76
2023/03/06 02:35:51;;;;;;;306.42;96.97;;;;;;;6.19;42.68;100710.69;5063455;28;20478;-76
2023/03/06 02:38:20;;;;;;;326.85;98.72;;;;;;;6.10;42.84;100712.41;5059328;28;20746;-76
2023/03/06 02:40:49;;;;;;;297.45;93.63;;;;;;;5.92;42.91;100708.78;5053808;28;20423;-75
2023/03/06 02:43:21;;;;;;;283.38;91.47;;;;;;;5.81;43.54;100711.56;5056025;28;20480;-77
2023/03/06 02:45:48;;;;;;;273.65;88.40;;;;;;;5.72;43.40;100708.78;5068134;28;20394;-76
2023/03/06 02:48:15;;;;;;;237.63;82.82;;;;;;;5.58;43.54;100713.63;5058649;28;20396;-76
2023/03/06 02:50:43;;;;;;;234.10;82.20;;;;;;;5.59;44.03;100708.22;5069663;28;20375;-76
2023/03/06 02:53:10;;;;;;;227.70;80.32;;;;;;;5.44;43.75;100706.94;5057467;28;20423;-76
2023/03/06 02:55:36;;;;;;;235.93;82.97;;;;;;;5.48;43.57;100693.41;5061920;28;20429;-76
2023/03/06 02:58:02;;;;;;;213.23;75.95;;;;;;;5.34;44.02;100710.41;5057329;28;20416;-76
2023/03/06 03:00:28;;;;;;;194.15;72.07;;;;;;;5.25;44.26;100705.97;5069808;28;20394;-76
2023/03/06 03:02:54;;;;;;;134.80;64.00;;;;;;;5.21;44.50;100711.66;5054090;28;20377;-76
2023/03/06 03:05:20;;;;;;;167.93;68.68;;;;;;;5.10;44.72;100705.53;5054823;28;20388;-76
2023/03/06 03:07:46;;;;;;;131.90;62.47;;;;;;;5.07;44.28;100700.53;5057047;28;20398;-76
2023/03/06 03:10:12;;;;;;;197.30;74.47;;;;;;;5.06;44.52;100705.91;5063387;28;20863;-76
2023/03/06 03:12:38;;;;;;;172.13;69.13;;;;;;;4.99;44.91;100708.28;5065228;28;20855;-75
2023/03/06 03:15:04;;;;;;;162.25;68.00;;;;;;;5.01;44.37;100702.88;5058978;28;20475;-75
2023/03/06 03:17:30;;;;;;;174.10;70.23;;;;;;;5.03;44.81;100709.66;5057466;28;20385;-75
2023/03/06 03:19:55;;;;;;;190.87;73.23;;;;;;;4.93;44.55;100707.00;5054286;28;20864;-76
2023/03/06 03:22:21;;;;;;;195.03;74.27;;;;;;;4.94;45.31;100711.28;5069220;28;20383;-75
2023/03/06 03:24:46;;;;;;;213.18;78.57;;;;;;;4.90;45.06;100709.91;5055016;28;20482;-76
2023/03/06 03:27:13;;;;;;;240.63;82.72;;;;;;;4.93;45.18;100719.28;5053727;28;20471;-75
2023/03/06 03:29:39;;;;;;;265.92;87.47;;;;;;;4.91;45.25;100716.78;5058425;28;20442;-76
2023/03/06 03:32:05;;;;;;;331.15;98.22;;;;;;;4.86;45.15;100719.00;5069094;28;20390;-75
2023/03/06 03:34:30;;;;;;;272.23;87.68;;;;;;;4.74;45.88;100720.88;5062160;28;20397;-75
2023/03/06 03:36:56;;;;;;;351.17;102.60;;;;;;;4.80;45.65;100724.78;5073726;28;20419;-75
2023/03/06 03:39:21;;;;;;;331.58;99.00;;;;;;;4.83;45.66;100726.31;5060879;28;20413;-76
2023/03/06 03:41:47;;;;;;;327.93;98.03;;;;;;;4.73;45.34;100721.84;5060536;28;20439;-76
2023/03/06 03:44:12;;;;;;;319.23;96.33;;;;;;;4.77;45.69;100727.66;5064312;28;20379;-75
2023/03/06 03:46:38;;;;;;;348.65;100.70;;;;;;;4.76;45.81;100733.91;5054995;28;20419;-76
2023/03/06 03:49:04;;;;;;;367.38;104.13;;;;;;;4.78;45.35;100724.91;5058434;28;20397;-76
2023/03/06 03:51:30;;;;;;;355.35;102.82;;;;;;;4.77;45.84;100732.91;5059932;28;20383;-75
2023/03/06 03:53:56;;;;;;;380.73;107.03;;;;;;;4.77;45.67;100731.13;5067136;28;20485;-76
2023/03/06 03:56:23;;;;;;;331.38;98.03;;;;;;;4.76;45.95;100737.34;5063832;28;20478;-76
2023/03/06 03:58:49;;;;;;;347.13;101.70;;;;;;;4.69;45.93;100740.63;5053531;28;20446;-76
2023/03/06 04:01:15;;;;;;;355.03;104.83;;;;;;;4.62;46.31;100739.50;5057903;28;20439;-75
2023/03/06 04:03:40;;;;;;;368.03;105.93;;;;;;;4.64;46.22;100727.88;5067935;28;20379;-76
2023/03/06 04:06:06;;;;;;;433.40;115.63;;;;;;;4.75;45.86;100724.34;5068053;28;20448;-76
2023/03/06 04:08:31;;;;;;;399.65;109.45;;;;;;;4.72;45.98;100725.44;5064046;28;20843;-76
2023/03/06 04:10:57;;;;;;;410.00;111.70;;;;;;;4.60;46.42;100737.81;5057614;28;20739;-76
2023/03/06 04:13:22;;;;;;;413.57;111.67;;;;;;;4.63;46.40;100730.63;5065505;28;20400;-76
2023/03/06 04:15:50;;;;;;;473.77;120.07;;;;;;;4.71;46.00;100731.66;5062406;28;20391;-77
2023/03/06 04:18:16;;;;;;;478.88;122.28;;;;;;;4.72;45.84;100743.81;5069557;28;20383;-77
2023/03/06 04:20:45;;;;;;;501.45;125.43;;;;;;;4.67;46.47;100735.50;5069593;28;20421;-77
2023/03/06 04:23:11;;;;;;;536.78;132.45;;;;;;;4.63;46.32;100743.75;5056926;28;20436;-77
2023/03/06 04:25:37;;;;;;;245.63;85.65;;;;;;;4.61;46.21;100738.66;5070832;28;20395;-77
2023/03/06 04:28:03;;;;;;;238.07;83.22;;;;;;;4.63;46.85;100749.00;5060167;28;20389;-77
2023/03/06 04:30:28;;;;;;;307.47;95.73;;;;;;;4.65;46.81;100740.06;5067165;28;20469;-77
2023/03/06 04:32:54;;;;;;;326.97;99.03;;;;;;;4.65;46.77;100749.75;5052924;28;21113;-75
2023/03/06 04:35:19;;;;;;;321.67;98.27;;;;;;;4.61;46.38;100751.78;5058043;28;20386;-76
2023/03/06 04:37:45;;;;;;;342.20;101.77;;;;;;;4.55;47.13;100737.38;5062098;28;20931;-75
2023/03/06 04:40:18;;;;;;;352.95;103.35;;;;;;;4.55;46.95;100737.38;5061981;28;20438;-77
2023/03/06 04:42:44;;;;;;;286.55;92.47;;;;;;;4.59;46.97;100746.66;5059778;28;20447;-76
2023/03/06 04:45:09;;;;;;;273.40;89.95;;;;;;;4.49;47.19;100745.78;5067836;28;20838;-75
2023/03/06 04:47:35;;;;;;;332.13;99.60;;;;;;;4.38;47.05;100745.84;5057699;28;20942;-75
2023/03/06 04:50:01;;;;;;;312.77;98.97;;;;;;;4.39;46.92;100750.13;5061689;28;20426;-76
2023/03/06 04:52:26;;;;;;;305.88;99.70;;;;;;;4.40;47.17;100749.19;5064881;28;20396;-76
2023/03/06 04:54:51;;;;;;;306.88;100.10;;;;;;;4.44;47.33;100762.88;5069139;28;20403;-76
2023/03/06 04:57:17;;;;;;;296.27;97.30;;;;;;;4.43;47.19;100766.44;5066784;28;20872;-76
2023/03/06 04:59:42;;;;;;;290.07;95.90;;;;;;;4.38;47.61;100766.84;5061561;28;20416;-76
2023/03/06 05:02:08;;;;;;;286.63;93.87;;;;;;;4.20;47.95;100762.16;5061432;28;20387;-77
2023/03/06 05:04:33;;;;;;;277.83;91.65;;;;;;;4.18;48.17;100758.84;5060233;28;20386;-77
2023/03/06 05:06:59;;;;;;;251.90;86.90;;;;;;;4.11;48.30;100759.50;5064282;28;20895;-77
2023/03/06 05:09:24;;;;;;;258.30;88.33;;;;;;;4.19;47.96;100764.91;5061772;28;20444;-78
2023/03/06 05:11:49;;;;;;;271.48;92.43;;;;;;;4.27;47.87;100759.03;5061214;28;20387;-77
2023/03/06 05:14:15;;;;;;;265.57;90.03;;;;;;;4.41;48.08;100769.19;5063365;28;20493;-77
2023/03/06 05:16:40;;;;;;;260.13;89.27;;;;;;;4.48;47.42;100757.22;5061675;28;20396;-78
2023/03/06 05:19:06;;;;;;;255.80;89.07;;;;;;;4.49;47.72;100764.16;5061157;28;20383;-78
2023/03/06 05:21:31;;;;;;;257.77;87.70;;;;;;;4.47;47.54;100767.88;5061143;28;20444;-78
2023/03/06 05:23:57;;;;;;;253.10;86.83;;;;;;;4.45;47.68;100773.25;5059082;28;20386;-77
2023/03/06 05:26:22;;;;;;;250.43;86.40;;;;;;;4.44;47.90;100762.88;5059840;28;20443;-76
2023/03/06 05:28:48;;;;;;;255.20;86.90;;;;;;;4.54;47.90;100769.03;5053818;28;20380;-75
2023/03/06 05:31:13;;;;;;;264.85;87.82;;;;;;;4.55;47.36;100771.50;5066453;28;20420;-77
2023/03/06 05:33:39;;;;;;;267.20;90.03;;;;;;;4.54;47.89;100767.22;5053064;28;20415;-77
2023/03/06 05:36:07;;;;;;;286.17;99.07;;;;;;;4.65;47.88;100776.81;5052302;28;20866;-76
2023/03/06 05:38:32;;;;;;;272.73;90.63;;;;;;;4.73;47.50;100774.34;5062082;28;20379;-77
2023/03/06 05:40:58;;;;;;;271.80;90.03;;;;;;;4.76;47.58;100776.72;5060044;28;20774;-78
2023/03/06 05:43:23;;;;;;;258.17;88.20;;;;;;;4.83;47.19;100779.69;5060728;28;20388;-77
2023/03/06 05:45:51;;;;;;;273.63;88.80;;;;;;;4.91;47.85;100766.69;5058905;28;20408;-77
2023/03/06 05:48:16;;;;;;;250.15;85.75;;;;;;;5.08;47.56;100782.84;5060556;28;20897;-77
2023/03/06 05:50:42;;;;;;;253.48;88.20;;;;;;;5.11;47.37;100775.53;5063265;28;21599;-77
2023/03/06 05:53:07;;;;;;;257.10;87.57;;;;;;;5.22;47.49;100766.69;5059545;28;20413;-78
2023/03/06 05:55:32;;;;;;;271.10;97.23;;;;;;;5.34;47.20;100777.91;5060651;28;20936;-78
2023/03/06 05:57:58;;;;;;;259.95;93.35;;;;;;;5.41;47.40;100778.22;5063549;28;20447;-77
2023/03/06 06:00:24;;;;;;;240.07;86.17;;;;;;;5.51;47.06;100777.28;5025688;28;20434;-78
2023/03/06 06:02:49;;;;;;;261.43;96.37;;;;;;;5.45;47.49;100777.81;5060520;28;20395;-77
2023/03/06 06:05:15;;;;;;;301.37;116.47;;;;;;;5.65;47.48;100776.03;5060937;28;20719;-78
2023/03/06 06:07:41;;;;;;;260.73;90.43;;;;;;;5.82;46.82;100784.25;5060013;28;20405;-77
2023/03/06 06:10:07;;;;;;;268.63;88.68;;;;;;;5.88;46.70;100783.69;5063082;28;20402;-78
2023/03/06 06:12:33;;;;;;;258.05;88.70;;;;;;;6.08;46.37;100784.56;5060158;28;20467;-76
2023/03/06 06:14:58;;;;;;;248.70;87.00;;;;;;;6.20;46.59;100783.44;5059321;28;20449;-78
2023/03/06 06:17:24;;;;;;;239.57;86.18;;;;;;;6.44;46.26;100795.31;5061390;28;20417;-78
2023/03/06 06:19:49;;;;;;;249.77;87.23;;;;;;;6.50;46.63;100794.78;5061003;28;20391;-77
2023/03/06 06:22:15;;;;;;;238.47;85.57;;;;;;;6.56;46.35;100798.66;5062354;28;20478;-77
2023/03/06 06:24:41;;;;;;;240.13;86.93;;;;;;;6.66;46.41;100788.91;5061703;28;20442;-77
2023/03/06 06:27:07;;;;;;;249.95;91.18;;;;;;;6.67;46.10;100801.09;5060375;28;20821;-77
2023/03/06 06:29:33;;;;;;;245.93;87.82;;;;;;;6.78;45.95;100802.75;5067210;28;20413;-78
2023/03/06 06:31:59;;;;;;;240.73;86.83;;;;;;;6.94;45.99;100800.34;5067566;28;20387;-78
2023/03/06 06:34:25;;;;;;;237.63;86.20;;;;;;;7.04;46.16;100800.28;5062663;28;20494;-78
2023/03/06 06:36:51;;;;;;;254.70;92.00;;;;;;;7.20;46.04;100797.03;5065102;28;20389;-79
2023/03/06 06:39:18;;;;;;;217.77;82.53;;;;;;;7.33;45.80;100808.09;5069402;28;20461;-78
2023/03/06 06:41:46;;;;;;;216.70;80.53;;;;;;;7.31;45.02;100798.66;5064809;28;20462;-78
2023/03/06 06:44:14;;;;;;;232.75;87.32;;;;;;;7.50;45.31;100810.91;5070141;28;20379;-78
2023/03/06 06:46:43;;;;;;;213.37;80.57;;;;;;;7.51;44.53;100804.66;5064033;28;20411;-78
2023/03/06 06:49:09;;;;;;;215.48;85.40;;;;;;;7.68;45.43;100811.78;5070061;28;20390;-76
2023/03/06 06:51:36;;;;;;;212.85;86.18;;;;;;;7.70;44.44;100806.34;5068418;28;20444;-79
2023/03/06 06:54:01;;;;;;;210.93;78.73;;;;;;;7.77;43.99;100808.22;5068220;28;20556;-77
2023/03/06 06:56:27;;;;;;;204.23;78.13;;;;;;;7.71;43.67;100806.22;5063389;28;20826;-75
2023/03/06 06:58:53;;;;;;;198.67;77.70;;;;;;;7.83;43.56;100818.22;5070270;28;20375;-78
2023/03/06 07:01:19;;;;;;;197.48;78.03;;;;;;;7.95;43.22;100816.16;5069696;28;20404;-78
2023/03/06 07:03:45;;;;;;;192.57;74.28;;;;;;;7.95;42.21;100820.63;5068858;28;20378;-77
2023/03/06 07:06:10;;;;;;;187.80;74.17;;;;;;;8.00;42.67;100815.72;5070336;28;20378;-77
2023/03/06 07:08:37;;;;;;;211.83;84.67;;;;;;;7.94;42.02;100806.59;5073350;28;20787;-78
2023/03/06 07:11:08;;;;;;;185.75;73.78;;;;;;;8.21;41.92;100813.63;5074060;28;20383;-76
2023/03/06 07:13:34;;;;;;;188.13;73.75;;;;;;;8.33;41.53;100819.47;5073313;28;20406;-76
2023/03/06 07:16:00;;;;;;;218.50;82.97;;;;;;;8.41;41.01;100818.72;5075418;28;20387;-77
2023/03/06 07:18:25;;;;;;;202.47;76.30;;;;;;;8.42;40.85;100821.22;5074756;28;20386;-77
2023/03/06 07:20:52;;;;;;;228.48;81.45;;;;;;;8.63;40.97;100817.44;5064673;28;20702;-77
2023/03/06 07:23:18;;;;;;;219.25;79.35;;;;;;;8.49;39.72;100812.69;5071464;28;20391;-76
2023/03/06 07:25:43;;;;;;;238.93;83.90;;;;;;;8.65;40.54;100812.81;5062033;28;20732;-77
2023/03/06 07:28:09;;;;;;;218.60;79.73;;;;;;;8.73;40.12;100818.16;5069389;28;20412;-78
2023/03/06 07:30:34;;;;;;;237.70;83.60;;;;;;;8.85;39.82;100817.91;5073538;28;20422;-76
2023/03/06 07:33:00;;;;;;;203.30;78.65;;;;;;;8.86;39.73;100828.31;5065125;28;20397;-78
2023/03/06 07:35:26;;;;;;;212.90;78.38;;;;;;;8.75;38.41;100833.84;5069480;28;20379;-77
2023/03/06 07:37:52;;;;;;;244.05;89.63;;;;;;;8.87;38.84;100816.75;5054579;28;20876;-77
2023/03/06 07:40:19;;;;;;;212.30;78.63;;;;;;;9.04;38.22;100827.41;5053308;28;20392;-76
2023/03/06 07:42:45;;;;;;;215.38;82.53;;;;;;;9.09;38.36;100822.47;5053608;28;20401;-78
2023/03/06 07:45:11;;;;;;;188.00;74.65;;;;;;;9.25;37.50;100830.50;5052441;28;20379;-77
2023/03/06 07:47:37;;;;;;;173.15;70.95;;;;;;;9.14;36.61;100826.31;5052039;28;20496;-77
2023/03/06 07:50:05;;;;;;;182.52;71.85;;;;;;;9.21;36.05;100828.34;5053209;28;20737;-77
2023/03/06 07:52:34;;;;;;;175.85;70.60;;;;;;;9.19;35.59;100828.50;5052734;28;20372;-77
2023/03/06 07:55:00;;;;;;;171.15;70.78;;;;;;;9.11;36.46;100829.28;5052122;28;20488;-78
2023/03/06 07:57:25;;;;;;;186.70;73.13;;;;;;;9.36;35.79;100824.09;5052915;28;20468;-77
2023/03/06 07:59:51;;;;;;;191.45;74.13;;;;;;;9.42;35.35;100827.91;5053193;28;20395;-78
2023/03/06 08:02:16;;;;;;;197.77;75.47;;;;;;;9.22;34.93;100836.13;5053919;28;20714;-79
2023/03/06 08:04:42;;;;;;;203.13;76.93;;;;;;;9.50;35.46;100849.13;5053386;28;20380;-77
2023/03/06 08:07:08;;;;;;;208.27;76.60;;;;;;;9.52;33.91;100847.97;5052949;28;20767;-77
2023/03/06 08:09:34;;;;;;;208.75;77.68;;;;;;;9.37;34.36;100826.59;5052725;28;20377;-78
2023/03/06 08:12:00;;;;;;;208.68;77.65;;;;;;;9.62;33.99;100834.63;5052745;28;20450;-75
2023/03/06 08:14:25;;;;;;;192.73;74.18;;;;;;;9.72;33.32;100839.75;5068258;28;20404;-79
2023/03/06 08:16:53;;;;;;;181.83;71.77;;;;;;;9.84;33.61;100833.19;5051974;28;20873;-78
2023/03/06 08:19:19;;;;;;;197.25;75.50;;;;;;;10.01;33.99;100841.16;5053754;28;20443;-78
2023/03/06 08:21:44;;;;;;;222.23;80.20;;;;;;;9.98;32.92;100829.06;5052741;28;20380;-77
2023/03/06 08:24:12;;;;;;;238.87;87.07;;;;;;;10.07;32.94;100828.09;5052176;28;20754;-77
2023/03/06 08:26:37;;;;;;;220.52;80.07;;;;;;;9.88;32.32;100823.91;5052568;28;20381;-77
2023/03/06 08:29:03;;;;;;;216.83;78.60;;;;;;;9.94;32.34;100819.81;5052649;28;20441;-77
2023/03/06 08:31:33;;;;;;;222.02;81.15;;;;;;;10.02;33.10;100816.34;5052605;28;20373;-77
2023/03/06 08:34:01;;;;;;;235.60;82.40;;;;;;;9.99;32.49;100817.47;5052249;28;20466;-77
2023/03/06 08:36:27;;;;;;;210.13;77.70;;;;;;;10.20;31.70;100818.84;5051961;28;20376;-78
2023/03/06 08:38:53;;;;;;;200.57;75.47;;;;;;;10.07;31.05;100822.78;5051794;28;20430;-77
2023/03/06 08:41:19;;;;;;;206.23;76.75;;;;;;;10.14;31.89;100817.69;5051670;28;20383;-77
2023/03/06 08:43:45;;;;;;;206.25;77.32;;;;;;;10.18;31.02;100820.81;5051610;28;20375;-76
2023/03/06 08:46:11;;;;;;;199.50;75.70;;;;;;;10.24;30.78;100818.31;5051446;28;20404;-77
2023/03/06 08:48:37;;;;;;;200.50;75.37;;;;;;;10.29;29.77;100831.91;5051812;28;20387;-77
2023/03/06 08:51:02;;;;;;;198.75;75.88;;;;;;;10.22;30.21;100838.84;5067317;28;20381;-76
2023/03/06 08:53:28;;;;;;;197.77;75.50;;;;;;;10.25;29.22;100819.19;5052325;28;20401;-77
2023/03/06 08:55:53;;;;;;;185.23;73.67;;;;;;;10.44;30.08;100824.19;5078316;28;20464;-78
2023/03/06 08:58:19;;;;;;;182.05;69.95;;;;;;;10.24;28.75;100826.28;5053810;28;20372;-78
2023/03/06 09:00:45;;;;;;;161.53;67.67;;;;;;;10.36;29.52;100831.31;5051359;28;20385;-77
2023/03/06 09:03:10;;;;;;;181.17;71.80;;;;;;;10.39;28.74;100829.16;5052629;28;20873;-77
2023/03/06 09:05:36;;;;;;;193.73;74.30;;;;;;;10.65;29.25;100817.53;5053569;28;20427;-78
2023/03/06 09:08:01;;;;;;;202.73;75.00;;;;;;;10.31;28.09;100829.94;5051572;28;20435;-79
2023/03/06 09:10:27;;;;;;;201.57;74.57;;;;;;;10.12;28.71;100828.44;5052095;28;20368;-77
2023/03/06 09:12:53;;;;;;;192.70;75.80;;;;;;;10.46;28.87;100810.72;5051792;28;20373;-78
2023/03/06 09:15:20;;;;;;;190.88;76.30;;;;;;;10.53;28.80;100817.03;5052221;28;20434;-77
2023/03/06 09:17:46;;;;;;;178.70;71.70;;;;;;;10.66;28.46;100812.06;5051516;28;20369;-77
2023/03/06 09:20:12;;;;;;;165.93;69.03;;;;;;;10.16;27.60;100818.34;5051662;28;20391;-78
2023/03/06 09:22:38;;;;;;;169.03;68.73;;;;;;;10.02;28.49;100816.34;5052247;28;20380;-77
2023/03/06 09:25:05;;;;;;;178.20;71.20;;;;;;;10.44;28.98;100823.31;5052214;28;20406;-77
2023/03/06 09:27:31;;;;;;;179.73;71.57;;;;;;;10.81;29.14;100811.38;5050133;28;20377;-77
2023/03/06 09:29:56;;;;;;;176.37;70.37;;;;;;;10.46;28.28;100813.38;5051669;28;20388;-77
2023/03/06 09:32:22;;;;;;;182.37;71.33;;;;;;;10.69;28.78;100802.94;5050815;28;20380;-76
2023/03/06 09:34:50;;;;;;;161.97;69.27;;;;;;;10.80;28.62;100807.06;5052039;28;20484;-76
2023/03/06 09:37:16;;;;;;;166.90;68.80;;;;;;;10.64;28.26;100800.78;5052683;28;20740;-76
2023/03/06 09:39:42;;;;;;;169.88;69.93;;;;;;;10.75;28.44;100801.41;5051095;28;20518;-77
2023/03/06 09:42:14;;;;;;;162.77;68.97;;;;;;;10.88;29.08;100804.38;5050835;28;20397;-77
2023/03/06 09:44:42;;;;;;;167.43;69.38;;;;;;;11.07;28.47;100817.28;5051336;28;20456;-77
2023/03/06 09:47:37;;;;;;;176.77;72.07;;;;;;;11.05;28.73;100813.94;5050284;28;20400;-78
2023/03/06 09:50:17;;;;;;;158.93;68.47;;;;;;;10.90;29.17;100803.22;5051511;28;20511;-76
2023/03/06 09:52:45;;;;;;;168.75;69.93;;;;;;;11.27;29.70;100799.13;5050878;28;20491;-76
2023/03/06 09:55:18;;;;;;;178.23;71.75;;;;;;;11.52;30.53;100809.59;5051173;28;20388;-78
2023/03/06 09:57:50;;;;;;;162.68;69.30;;;;;;;11.57;29.50;100809.09;5051802;28;20725;-77
2023/03/06 10:00:22;;;;;;;159.75;68.35;;;;;;;11.46;28.97;100807.66;5067070;28;20384;-77
2023/03/06 10:03:11;;;;;;;165.50;69.50;;;;;;;11.54;29.55;100801.47;5050591;28;20379;-77
2023/03/06 10:05:49;;;;;;;162.88;69.82;;;;;;;11.75;30.10;100799.03;5061540;28;20380;-76
2023/03/06 10:08:38;;;;;;;20.27;18.42;;;;;;;11.93;30.14;100796.13;5050989;28;20380;-77
2023/03/06 10:11:10;;;;;;;25.77;23.60;;;;;;;12.04;30.12;100793.03;5052650;28;20753;-78
2023/03/06 10:13:46;;;;;;;27.55;23.30;;;;;;;11.76;29.49;100791.91;5054765;28;20392;-77
2023/03/06 10:16:30;;;;;;;22.40;20.05;;;;;;;11.69;29.35;100802.41;5056243;28;20423;-77
2023/03/06 10:19:03;;;;;;;22.60;20.60;;;;;;;11.94;30.71;100781.00;5056242;28;20377;-77
2023/03/06 10:21:35;;;;;;;22.15;19.98;;;;;;;11.98;29.54;100784.97;5056795;28;20388;-78
2023/03/06 10:24:06;;;;;;;23.73;19.27;;;;;;;11.85;29.48;100777.56;5064692;28;20391;-77
2023/03/06 10:26:39;;;;;;;21.80;19.80;;;;;;;12.23;30.82;100777.63;5065457;28;20735;-78
2023/03/06 10:29:10;;;;;;;25.83;23.63;;;;;;;12.37;30.64;100776.84;5074630;28;20443;-79
2023/03/06 10:31:39;;;;;;;14.20;8.93;;;;;;;12.47;31.01;100765.94;5074222;28;20387;-78
2023/03/06 10:34:21;;;;;;;12.80;7.13;;;;;;;12.54;29.92;100774.03;5074303;28;20437;-77
2023/03/06 10:36:47;;;;;;;12.43;8.65;;;;;;;12.54;29.40;100771.38;5073703;28;20744;-78
2023/03/06 10:39:20;;;;;;;10.95;7.40;;;;;;;12.30;29.22;100762.63;5073788;28;20386;-78
2023/03/06 10:41:47;;;;;;;15.75;7.20;;;;;;;12.29;29.31;100760.13;5073169;28;20458;-77
2023/03/06 10:44:12;;;;;;;10.38;6.03;;;;;;;12.21;29.08;100745.91;5074441;28;20836;-79
2023/03/06 10:46:43;;;;;;;9.50;5.50;;;;;;;11.89;28.96;100751.47;5074288;28;20421;-77
2023/03/06 10:49:24;;;;;;;9.75;5.38;;;;;;;11.62;29.32;100740.38;5074262;28;20375;-77
2023/03/06 10:52:00;;;;;;;9.50;5.00;;;;;;;11.60;28.94;100750.34;5074107;28;20385;-77
2023/03/06 10:54:35;;;;;;;13.25;6.68;;;;;;;11.57;29.51;100732.91;5073064;28;20399;-79
2023/03/06 10:57:24;;;;;;;11.80;5.77;;;;;;;11.64;29.27;100733.06;5074064;28;20367;-77
2023/03/06 11:00:03;;;;;;;13.03;6.07;;;;;;;11.85;29.27;100711.16;5072719;28;20363;-77
2023/03/06 11:02:30;;;;;;;11.40;6.95;;;;;;;12.17;29.20;100719.88;5073741;28;20379;-78
2023/03/06 11:04:58;;;;;;;9.23;5.68;;;;;;;12.32;29.41;100694.16;5074452;28;20438;-77
2023/03/06 11:07:27;;;;;;;11.33;6.63;;;;;;;12.59;29.42;100700.66;5074495;28;20452;-77
2023/03/06 11:09:55;;;;;;;10.32;5.93;;;;;;;12.72;29.90;100691.22;5073846;28;20413;-77